Time;durP1;ratioP1;P1;durP2;ratioP2;P2;SDS_P1;SDS_P2;PMS_P1;PMS_P2;Temp;Humidity;BMP_temperature;BMP_pressure;BME280_temperature;BME280_humidity;BME280_pressure;Samples;Min_cycle;Max_cycle;Signal;HPM_P1;HPM_P2
2024/01/20 00:01:22;;;;;;;61.72;28.92;;;;;;;;;;4965388;28;25104;-70
2024/01/20 00:03:48;;;;;;;60.53;30.08;;;;;;;;;;4941944;28;25074;-71
2024/01/20 00:06:14;;;;;;;59.22;30.15;;;;;;;;;;4957308;28;25103;-71
2024/01/20 00:08:40;;;;;;;59.97;29.73;;;;;;;;;;4951827;28;25085;-71
2024/01/20 00:11:06;;;;;;;58.40;29.98;;;;;;;;;;4947084;28;25051;-72
2024/01/20 00:13:32;;;;;;;66.13;31.08;;;;;;;;;;4961273;28;25086;-70
2024/01/20 00:15:58;;;;;;;59.25;30.17;;;;;;;;;;4941957;28;25090;-71
2024/01/20 00:18:24;;;;;;;63.65;32.42;;;;;;;;;;4961848;28;25130;-69
2024/01/20 00:20:50;;;;;;;69.82;31.58;;;;;;;;;;4952482;28;25155;-70
2024/01/20 00:23:16;;;;;;;63.58;31.70;;;;;;;;;;4945689;28;25083;-67
2024/01/20 00:25:42;;;;;;;71.30;35.17;;;;;;;;;;4962320;28;25076;-69
2024/01/20 00:28:08;;;;;;;69.00;35.17;;;;;;;;;;4944681;28;25105;-67
2024/01/20 00:30:34;;;;;;;74.22;37.20;;;;;;;;;;4954937;28;25059;-71
2024/01/20 00:33:01;;;;;;;78.05;36.78;;;;;;;;;;4957378;28;25126;-73
2024/01/20 00:35:27;;;;;;;73.30;36.25;;;;;;;;;;4957170;28;25143;-72
2024/01/20 00:37:53;;;;;;;83.15;39.28;;;;;;;;;;4957123;28;25131;-69
2024/01/20 00:40:20;;;;;;;80.45;37.95;;;;;;;;;;4945286;28;25137;-71
2024/01/20 00:42:46;;;;;;;74.82;35.35;;;;;;;;;;4963358;28;25054;-71
2024/01/20 00:45:12;;;;;;;70.30;36.63;;;;;;;;;;4947818;28;25068;-71
2024/01/20 00:47:38;;;;;;;78.10;38.25;;;;;;;;;;4954289;28;25143;-71
2024/01/20 00:50:04;;;;;;;74.20;36.85;;;;;;;;;;4945877;28;25064;-72
2024/01/20 00:52:31;;;;;;;76.30;39.22;;;;;;;;;;4949537;28;25087;-71
2024/01/20 00:54:57;;;;;;;87.60;41.58;;;;;;;;;;4966770;28;25069;-72
2024/01/20 00:57:23;;;;;;;88.93;42.95;;;;;;;;;;4948687;28;25081;-72
2024/01/20 00:59:49;;;;;;;85.35;39.13;;;;;;;;;;4957994;28;25150;-71
2024/01/20 01:02:16;;;;;;;86.85;40.58;;;;;;;;;;4956867;28;25055;-70
2024/01/20 01:04:42;;;;;;;86.90;39.88;;;;;;;;;;4952722;28;25099;-71
2024/01/20 01:07:08;;;;;;;77.90;38.42;;;;;;;;;;4965859;28;25092;-72
2024/01/20 01:09:34;;;;;;;93.97;41.85;;;;;;;;;;4942313;28;25062;-73
2024/01/20 01:12:00;;;;;;;88.93;41.67;;;;;;;;;;4959721;28;25088;-68
2024/01/20 01:14:26;;;;;;;96.85;43.65;;;;;;;;;;4953527;28;25058;-71
2024/01/20 01:16:53;;;;;;;96.45;44.03;;;;;;;;;;4944685;28;25088;-67
2024/01/20 01:19:19;;;;;;;88.38;42.15;;;;;;;;;;4963091;28;25160;-69
2024/01/20 01:21:45;;;;;;;83.50;37.75;;;;;;;;;;4952485;28;25086;-69
2024/01/20 01:24:11;;;;;;;85.07;37.95;;;;;;;;;;4957420;28;25135;-70
2024/01/20 01:26:37;;;;;;;79.88;37.63;;;;;;;;;;4969006;28;25049;-68
2024/01/20 01:29:03;;;;;;;78.22;37.47;;;;;;;;;;4957391;28;25075;-71
2024/01/20 01:31:29;;;;;;;82.75;38.20;;;;;;;;;;4944025;28;25145;-72
2024/01/20 01:33:55;;;;;;;83.03;38.35;;;;;;;;;;4960954;28;25058;-72
2024/01/20 01:36:21;;;;;;;82.30;38.03;;;;;;;;;;4944760;28;25053;-71
2024/01/20 01:38:47;;;;;;;83.90;37.45;;;;;;;;;;4956248;28;25096;-71
2024/01/20 01:41:13;;;;;;;91.90;40.90;;;;;;;;;;4954144;28;25135;-72
2024/01/20 01:43:39;;;;;;;75.05;35.88;;;;;;;;;;4944492;28;25061;-72
2024/01/20 01:46:05;;;;;;;69.43;34.55;;;;;;;;;;4965832;28;25085;-68
2024/01/20 01:48:33;;;;;;;78.00;36.70;;;;;;;;;;4947585;28;25110;-68
2024/01/20 01:51:01;;;;;;;91.32;38.22;;;;;;;;;;4937398;28;25130;-70
2024/01/20 01:53:27;;;;;;;79.60;38.15;;;;;;;;;;4953054;28;25069;-73
2024/01/20 01:55:53;;;;;;;77.43;36.55;;;;;;;;;;4949358;28;25155;-70
2024/01/20 01:58:19;;;;;;;78.32;36.88;;;;;;;;;;4963852;28;25066;-69
2024/01/20 02:00:45;;;;;;;79.13;38.63;;;;;;;;;;4943803;28;25113;-67
2024/01/20 02:03:11;;;;;;;79.70;37.95;;;;;;;;;;4958385;28;25048;-70
2024/01/20 02:05:37;;;;;;;82.40;37.25;;;;;;;;;;4952587;28;25098;-69
2024/01/20 02:08:04;;;;;;;79.95;37.03;;;;;;;;;;4948371;28;25108;-69
2024/01/20 02:10:31;;;;;;;74.75;37.05;;;;;;;;;;4964854;28;25142;-71
2024/01/20 02:12:57;;;;;;;78.13;38.42;;;;;;;;;;4943822;28;25074;-71
2024/01/20 02:15:24;;;;;;;86.45;38.08;;;;;;;;;;4957478;28;25052;-68
2024/01/20 02:17:50;;;;;;;74.22;35.47;;;;;;;;;;4967335;28;25109;-68
2024/01/20 02:20:16;;;;;;;78.95;35.25;;;;;;;;;;4962824;28;25066;-70
2024/01/20 02:22:42;;;;;;;72.60;35.88;;;;;;;;;;4942791;28;25062;-69
2024/01/20 02:25:08;;;;;;;73.60;33.90;;;;;;;;;;4968495;28;25061;-72
2024/01/20 02:27:34;;;;;;;80.82;34.53;;;;;;;;;;4945073;28;25053;-70
2024/01/20 02:30:00;;;;;;;81.68;34.40;;;;;;;;;;4961887;28;25062;-71
2024/01/20 02:32:26;;;;;;;75.82;35.60;;;;;;;;;;4957260;28;25102;-70
2024/01/20 02:34:52;;;;;;;72.68;32.72;;;;;;;;;;4949116;28;25107;-72
2024/01/20 02:37:18;;;;;;;74.05;33.28;;;;;;;;;;4965973;28;25089;-72
2024/01/20 02:39:44;;;;;;;83.57;34.88;;;;;;;;;;4944364;28;25095;-72
2024/01/20 02:42:10;;;;;;;74.32;33.47;;;;;;;;;;4946807;28;25100;-69
2024/01/20 02:44:37;;;;;;;67.18;30.73;;;;;;;;;;4955144;28;25056;-71
2024/01/20 02:47:03;;;;;;;69.32;31.30;;;;;;;;;;4960477;28;25119;-72
2024/01/20 02:49:29;;;;;;;74.47;32.35;;;;;;;;;;4944483;28;25156;-71
2024/01/20 02:51:55;;;;;;;65.75;29.30;;;;;;;;;;4957833;28;25125;-69
2024/01/20 02:54:21;;;;;;;65.95;31.42;;;;;;;;;;4945639;28;25134;-70
2024/01/20 02:56:47;;;;;;;58.17;30.10;;;;;;;;;;4951981;28;25093;-73
2024/01/20 02:59:13;;;;;;;66.20;31.83;;;;;;;;;;4952454;28;25082;-70
2024/01/20 03:01:39;;;;;;;63.90;29.80;;;;;;;;;;4942632;28;25091;-74
2024/01/20 03:04:05;;;;;;;61.50;29.40;;;;;;;;;;4961543;28;25117;-73
2024/01/20 03:06:32;;;;;;;63.42;28.70;;;;;;;;;;4961936;28;25056;-69
2024/01/20 03:08:58;;;;;;;70.90;30.33;;;;;;;;;;4963494;28;25091;-69
2024/01/20 03:11:25;;;;;;;63.97;30.48;;;;;;;;;;4952734;28;25057;-70
2024/01/20 03:13:51;;;;;;;66.45;29.17;;;;;;;;;;4943581;28;25073;-70
2024/01/20 03:16:17;;;;;;;62.63;28.27;;;;;;;;;;4960912;28;25084;-69
2024/01/20 03:18:43;;;;;;;61.78;29.25;;;;;;;;;;4946576;28;25102;-71
2024/01/20 03:21:09;;;;;;;63.80;27.60;;;;;;;;;;4954030;28;25139;-71
2024/01/20 03:23:35;;;;;;;73.35;31.00;;;;;;;;;;4962487;28;25070;-71
2024/01/20 03:26:07;;;;;;;64.82;28.50;;;;;;;;;;4963548;28;25051;-71
2024/01/20 03:28:33;;;;;;;58.10;28.88;;;;;;;;;;4957873;28;25061;-70
2024/01/20 03:30:59;;;;;;;64.95;29.60;;;;;;;;;;4942501;28;25077;-69
2024/01/20 03:33:25;;;;;;;64.93;29.95;;;;;;;;;;4956995;28;25886;-68
2024/01/20 03:35:52;;;;;;;61.65;28.63;;;;;;;;;;4962767;28;25057;-68
2024/01/20 03:38:18;;;;;;;65.47;30.75;;;;;;;;;;4960314;28;25138;-69
2024/01/20 03:40:44;;;;;;;62.28;29.15;;;;;;;;;;4962690;28;25064;-72
2024/01/20 03:43:10;;;;;;;63.72;29.05;;;;;;;;;;4968872;28;25092;-71
2024/01/20 03:45:38;;;;;;;64.40;30.48;;;;;;;;;;4948499;28;25067;-70
2024/01/20 03:48:04;;;;;;;55.67;28.05;;;;;;;;;;4957694;28;25161;-71
2024/01/20 03:50:30;;;;;;;57.50;27.65;;;;;;;;;;4974473;28;25134;-75
2024/01/20 03:52:56;;;;;;;67.72;30.77;;;;;;;;;;4971494;28;25149;-72
2024/01/20 03:55:22;;;;;;;60.30;27.55;;;;;;;;;;4955435;28;25063;-71
2024/01/20 03:57:48;;;;;;;64.30;27.10;;;;;;;;;;4971479;28;25059;-73
2024/01/20 04:00:14;;;;;;;58.58;27.67;;;;;;;;;;4947664;28;25108;-72
2024/01/20 04:02:40;;;;;;;59.63;30.10;;;;;;;;;;4949184;28;25115;-72
2024/01/20 04:05:06;;;;;;;67.47;30.55;;;;;;;;;;4959962;28;25086;-70
2024/01/20 04:07:32;;;;;;;66.93;30.13;;;;;;;;;;4941506;28;25092;-70
2024/01/20 04:09:59;;;;;;;62.38;29.42;;;;;;;;;;4963342;28;25091;-72
2024/01/20 04:12:25;;;;;;;64.35;29.48;;;;;;;;;;4966429;28;25110;-69
2024/01/20 04:14:51;;;;;;;58.63;27.08;;;;;;;;;;4969294;28;25102;-70
2024/01/20 04:17:17;;;;;;;69.90;29.40;;;;;;;;;;4970034;28;25075;-70
2024/01/20 04:19:43;;;;;;;68.13;31.80;;;;;;;;;;4966222;28;25090;-70
2024/01/20 04:22:09;;;;;;;59.67;28.30;;;;;;;;;;4966138;28;25065;-70
2024/01/20 04:24:35;;;;;;;67.85;29.30;;;;;;;;;;4947854;28;25074;-70
2024/01/20 04:27:01;;;;;;;64.07;29.13;;;;;;;;;;4962555;28;24750;-70
2024/01/20 04:29:27;;;;;;;64.35;28.70;;;;;;;;;;4969375;28;25065;-70
2024/01/20 04:31:53;;;;;;;59.70;28.55;;;;;;;;;;4970218;28;25135;-72
2024/01/20 04:34:19;;;;;;;60.80;27.27;;;;;;;;;;4963579;28;25084;-72
2024/01/20 04:36:45;;;;;;;58.65;28.80;;;;;;;;;;4946148;28;25124;-71
2024/01/20 04:39:11;;;;;;;61.90;28.45;;;;;;;;;;4961606;28;25074;-71
2024/01/20 04:41:37;;;;;;;63.42;28.90;;;;;;;;;;4966052;28;25065;-69
2024/01/20 04:44:03;;;;;;;62.78;29.30;;;;;;;;;;4960843;28;25144;-73
2024/01/20 04:46:29;;;;;;;76.45;29.48;;;;;;;;;;4942668;28;25061;-73
2024/01/20 04:48:55;;;;;;;58.63;27.13;;;;;;;;;;4959120;28;25084;-69
2024/01/20 04:51:21;;;;;;;64.72;28.50;;;;;;;;;;4942458;28;25077;-70
2024/01/20 04:53:47;;;;;;;73.55;29.90;;;;;;;;;;4947144;28;25096;-69
2024/01/20 04:56:13;;;;;;;58.80;27.23;;;;;;;;;;4955119;28;25042;-70
2024/01/20 04:58:39;;;;;;;57.30;27.30;;;;;;;;;;4941877;28;25154;-69
2024/01/20 05:01:05;;;;;;;68.90;29.13;;;;;;;;;;4955580;28;25145;-68
2024/01/20 05:03:31;;;;;;;66.88;29.63;;;;;;;;;;4959718;28;25066;-70
2024/01/20 05:05:57;;;;;;;68.60;31.63;;;;;;;;;;4951318;28;25130;-74
2024/01/20 05:08:23;;;;;;;75.93;33.70;;;;;;;;;;4948108;28;25054;-72
2024/01/20 05:10:49;;;;;;;79.70;32.67;;;;;;;;;;4959827;28;25101;-71
2024/01/20 05:13:15;;;;;;;62.47;29.83;;;;;;;;;;4943909;28;25060;-68
2024/01/20 05:15:41;;;;;;;68.82;31.02;;;;;;;;;;4961940;28;25103;-71
2024/01/20 05:18:07;;;;;;;68.78;31.55;;;;;;;;;;4948807;28;25076;-71
2024/01/20 05:20:33;;;;;;;65.80;30.65;;;;;;;;;;4946633;28;25045;-72
2024/01/20 05:22:59;;;;;;;68.57;30.95;;;;;;;;;;4956840;28;25051;-73
2024/01/20 05:25:25;;;;;;;65.38;27.95;;;;;;;;;;4940128;28;25115;-73
2024/01/20 05:27:51;;;;;;;64.50;30.00;;;;;;;;;;4959493;28;25070;-68
2024/01/20 05:30:17;;;;;;;66.78;31.83;;;;;;;;;;4963435;28;25097;-70
2024/01/20 05:32:43;;;;;;;66.00;29.23;;;;;;;;;;4969162;28;25133;-71
2024/01/20 05:35:09;;;;;;;63.40;29.98;;;;;;;;;;4962735;28;25052;-69
2024/01/20 05:37:35;;;;;;;75.72;32.08;;;;;;;;;;4959537;28;25071;-69
2024/01/20 05:40:04;;;;;;;69.53;31.08;;;;;;;;;;4940312;28;25162;-73
2024/01/20 05:42:30;;;;;;;57.75;26.88;;;;;;;;;;4960303;28;25084;-69
2024/01/20 05:44:57;;;;;;;66.30;30.90;;;;;;;;;;4940560;28;25052;-70
2024/01/20 05:47:23;;;;;;;64.68;31.17;;;;;;;;;;4936534;28;25067;-69
2024/01/20 05:49:49;;;;;;;71.28;32.15;;;;;;;;;;4952161;28;25064;-73
2024/01/20 05:52:15;;;;;;;68.78;30.17;;;;;;;;;;4945051;28;25090;-70
2024/01/20 05:54:41;;;;;;;60.65;28.52;;;;;;;;;;4963780;28;25158;-70
2024/01/20 05:57:08;;;;;;;57.05;26.63;;;;;;;;;;4941427;28;25108;-69
2024/01/20 05:59:34;;;;;;;58.15;28.75;;;;;;;;;;4953560;28;25110;-70
2024/01/20 06:02:00;;;;;;;59.60;28.00;;;;;;;;;;4959828;28;25071;-70
2024/01/20 06:04:26;;;;;;;61.80;27.52;;;;;;;;;;4947392;28;25121;-70
2024/01/20 06:06:53;;;;;;;61.03;28.67;;;;;;;;;;4969954;28;25121;-69
2024/01/20 06:09:19;;;;;;;59.13;27.88;;;;;;;;;;4945589;28;25144;-69
2024/01/20 06:11:45;;;;;;;58.65;26.70;;;;;;;;;;4955810;28;25075;-71
2024/01/20 06:14:11;;;;;;;65.00;29.48;;;;;;;;;;4965854;28;25135;-70
2024/01/20 06:16:41;;;;;;;57.22;27.13;;;;;;;;;;4960153;28;25097;-70
2024/01/20 06:19:07;;;;;;;57.50;27.15;;;;;;;;;;4943768;28;25166;-69
2024/01/20 06:21:33;;;;;;;71.97;28.92;;;;;;;;;;4964653;28;25057;-71
2024/01/20 06:23:59;;;;;;;66.03;28.23;;;;;;;;;;4943921;28;25154;-69
2024/01/20 06:26:25;;;;;;;65.75;28.30;;;;;;;;;;4949478;28;25069;-71
2024/01/20 06:28:51;;;;;;;74.18;31.95;;;;;;;;;;4959850;28;25143;-71
2024/01/20 06:31:27;;;;;;;71.47;30.52;;;;;;;;;;4961360;28;25078;-71
2024/01/20 06:33:53;;;;;;;67.93;30.85;;;;;;;;;;4955039;28;25047;-71
2024/01/20 06:36:26;;;;;;;69.35;30.58;;;;;;;;;;4941026;28;25077;-71
2024/01/20 06:38:52;;;;;;;;;;;;;;;;;;4949038;28;25104;-70
2024/01/20 06:41:18;;;;;;;71.05;31.13;;;;;;;;;;4961968;28;25068;-70
2024/01/20 06:43:44;;;;;;;64.38;28.85;;;;;;;;;;4946179;28;25096;-70
2024/01/20 06:46:10;;;;;;;65.53;30.13;;;;;;;;;;4941006;28;25103;-69
2024/01/20 06:48:36;;;;;;;75.00;32.97;;;;;;;;;;4955974;28;25103;-70
2024/01/20 06:51:03;;;;;;;71.32;31.05;;;;;;;;;;4959926;28;25150;-70
2024/01/20 06:53:29;;;;;;;77.70;33.35;;;;;;;;;;4961834;28;25122;-71
2024/01/20 06:55:55;;;;;;;79.93;32.25;;;;;;;;;;4951834;28;25142;-70
2024/01/20 06:58:21;;;;;;;73.55;33.13;;;;;;;;;;4943884;28;25053;-70
2024/01/20 07:00:47;;;;;;;75.93;33.80;;;;;;;;;;4955705;28;25079;-70
2024/01/20 07:03:14;;;;;;;66.60;31.55;;;;;;;;;;4948167;28;25051;-70
2024/01/20 07:05:40;;;;;;;72.78;33.78;;;;;;;;;;4952455;28;25071;-69
2024/01/20 07:08:06;;;;;;;74.30;33.30;;;;;;;;;;4959086;28;25130;-69
2024/01/20 07:10:32;;;;;;;77.43;33.40;;;;;;;;;;4942457;28;25056;-71
2024/01/20 07:12:58;;;;;;;78.07;33.92;;;;;;;;;;4960781;28;25316;-70
2024/01/20 07:15:24;;;;;;;74.57;34.50;;;;;;;;;;4939665;28;25076;-70
2024/01/20 07:17:50;;;;;;;78.13;34.30;;;;;;;;;;4951664;28;25132;-71
2024/01/20 07:20:16;;;;;;;80.80;33.50;;;;;;;;;;4962417;28;25106;-70
2024/01/20 07:22:44;;;;;;;76.43;33.40;;;;;;;;;;4956843;28;25071;-70
2024/01/20 07:25:10;;;;;;;84.68;35.92;;;;;;;;;;4956901;28;25060;-70
2024/01/20 07:27:36;;;;;;;82.55;37.40;;;;;;;;;;4982588;28;25065;-70
2024/01/20 07:30:03;;;;;;;72.22;34.28;;;;;;;;;;4969606;28;25104;-69
2024/01/20 07:32:29;;;;;;;85.43;36.33;;;;;;;;;;4971352;28;25057;-70
2024/01/20 07:34:55;;;;;;;72.95;34.85;;;;;;;;;;4969638;28;25075;-70
2024/01/20 07:37:21;;;;;;;83.05;38.05;;;;;;;;;;4962352;28;25062;-71
2024/01/20 07:39:47;;;;;;;81.20;35.97;;;;;;;;;;4942050;28;25080;-69
2024/01/20 07:42:13;;;;;;;77.88;36.38;;;;;;;;;;4963566;28;25070;-72
2024/01/20 07:44:39;;;;;;;91.75;40.75;;;;;;;;;;4958952;28;25148;-69
2024/01/20 07:47:05;;;;;;;95.07;41.00;;;;;;;;;;4946424;28;25097;-70
2024/01/20 07:49:31;;;;;;;93.40;39.70;;;;;;;;;;4940165;28;25153;-71
2024/01/20 07:51:57;;;;;;;86.05;35.55;;;;;;;;;;4961852;28;25052;-70
2024/01/20 07:54:23;;;;;;;89.03;40.75;;;;;;;;;;4954349;28;25084;-70
2024/01/20 07:56:49;;;;;;;91.57;39.53;;;;;;;;;;4955132;28;25146;-69
2024/01/20 07:59:16;;;;;;;105.57;41.67;;;;;;;;;;4954552;28;25087;-70
2024/01/20 08:01:42;;;;;;;92.25;39.67;;;;;;;;;;4942917;28;25122;-70
2024/01/20 08:04:08;;;;;;;93.75;41.17;;;;;;;;;;4959623;28;25054;-70
2024/01/20 08:06:37;;;;;;;90.95;41.65;;;;;;;;;;4944583;28;25073;-72
2024/01/20 08:09:03;;;;;;;89.93;38.70;;;;;;;;;;4949949;28;25108;-70
2024/01/20 08:11:30;;;;;;;96.45;40.03;;;;;;;;;;4962508;28;25098;-73
2024/01/20 08:13:56;;;;;;;76.70;37.92;;;;;;;;;;4956127;28;25077;-73
2024/01/20 08:16:22;;;;;;;91.78;40.58;;;;;;;;;;4949532;28;25153;-71
2024/01/20 08:18:48;;;;;;;84.90;38.50;;;;;;;;;;4964328;28;25051;-71
2024/01/20 08:21:14;;;;;;;90.65;42.08;;;;;;;;;;4943358;28;25130;-71
2024/01/20 08:23:39;;;;;;;93.72;41.75;;;;;;;;;;4950851;28;25165;-72
2024/01/20 08:26:05;;;;;;;82.53;38.67;;;;;;;;;;4958333;28;25046;-69
2024/01/20 08:28:32;;;;;;;85.78;40.00;;;;;;;;;;4953843;28;25134;-72
2024/01/20 08:30:58;;;;;;;91.82;40.78;;;;;;;;;;4966913;28;25065;-74
2024/01/20 08:33:24;;;;;;;91.65;40.78;;;;;;;;;;4972769;28;25109;-71
2024/01/20 08:35:50;;;;;;;87.05;38.30;;;;;;;;;;4967664;28;25154;-73
2024/01/20 08:38:16;;;;;;;85.32;37.92;;;;;;;;;;4947181;28;25095;-73
2024/01/20 08:40:42;;;;;;;79.47;37.33;;;;;;;;;;4943868;28;25069;-72
2024/01/20 08:43:08;;;;;;;76.75;35.53;;;;;;;;;;4967095;28;25069;-72
2024/01/20 08:45:34;;;;;;;82.25;36.75;;;;;;;;;;4944572;28;25074;-70
2024/01/20 08:48:00;;;;;;;76.32;35.85;;;;;;;;;;4956245;23;25068;-77
2024/01/20 08:50:26;;;;;;;76.85;38.03;;;;;;;;;;4960968;28;25074;-78
2024/01/20 08:52:52;;;;;;;93.70;41.35;;;;;;;;;;4969783;28;25058;-78
2024/01/20 08:55:18;;;;;;;96.97;42.00;;;;;;;;;;4949297;29;25106;-77
2024/01/20 08:57:44;;;;;;;84.60;39.80;;;;;;;;;;4965666;28;25078;-75
2024/01/20 09:00:12;;;;;;;88.80;41.05;;;;;;;;;;4954537;28;25093;-77
2024/01/20 09:02:38;;;;;;;78.75;36.80;;;;;;;;;;4951242;28;25088;-77
2024/01/20 09:05:05;;;;;;;78.68;37.20;;;;;;;;;;4968052;28;25075;-77
2024/01/20 09:07:31;;;;;;;88.53;40.33;;;;;;;;;;4951534;28;25093;-76
2024/01/20 09:09:57;;;;;;;79.20;37.10;;;;;;;;;;4968519;28;25061;-79
2024/01/20 09:12:23;;;;;;;77.55;38.67;;;;;;;;;;4960368;28;25074;-76
2024/01/20 09:14:48;;;;;;;79.10;36.28;;;;;;;;;;4952592;28;25075;-77
2024/01/20 09:17:15;;;;;;;70.28;36.42;;;;;;;;;;4941876;28;25075;-77
2024/01/20 09:19:41;;;;;;;75.97;37.67;;;;;;;;;;4952109;28;25060;-77
2024/01/20 09:22:07;;;;;;;76.00;35.53;;;;;;;;;;4959943;28;25100;-77
2024/01/20 09:24:33;;;;;;;61.75;32.20;;;;;;;;;;4936556;28;25052;-76
2024/01/20 09:26:59;;;;;;;64.13;32.58;;;;;;;;;;4943238;28;25083;-76
2024/01/20 09:29:26;;;;;;;65.07;31.60;;;;;;;;;;4949508;28;25135;-77
2024/01/20 09:31:52;;;;;;;64.43;31.48;;;;;;;;;;4941848;28;25067;-79
2024/01/20 09:34:18;;;;;;;58.53;30.20;;;;;;;;;;4967761;28;25104;-77
2024/01/20 09:36:45;;;;;;;61.60;31.27;;;;;;;;;;4934566;28;25070;-78
2024/01/20 09:39:12;;;;;;;63.55;31.02;;;;;;;;;;4949209;28;25083;-79
2024/01/20 09:41:39;;;;;;;61.10;31.83;;;;;;;;;;4937432;28;25052;-76
2024/01/20 09:44:07;;;;;;;57.97;29.23;;;;;;;;;;4941988;28;25051;-77
2024/01/20 09:46:33;;;;;;;62.72;32.08;;;;;;;;;;4951105;28;25059;-79
2024/01/20 09:49:00;;;;;;;57.50;28.77;;;;;;;;;;4932877;29;25100;-78
2024/01/20 09:51:28;;;;;;;63.35;31.13;;;;;;;;;;4947025;28;25051;-74
2024/01/20 09:53:58;;;;;;;53.60;29.30;;;;;;;;;;4939042;28;25056;-78
2024/01/20 09:56:24;;;;;;;56.97;29.08;;;;;;;;;;4939524;28;25076;-77
2024/01/20 09:58:51;;;;;;;52.58;29.08;;;;;;;;;;4956567;28;25090;-77
2024/01/20 10:01:17;;;;;;;59.15;29.60;;;;;;;;;;4958593;28;25058;-81
2024/01/20 10:03:43;;;;;;;59.92;30.30;;;;;;;;;;4930490;28;25071;-78
2024/01/20 10:06:09;;;;;;;61.30;28.65;;;;;;;;;;4950455;28;25189;-78
2024/01/20 10:08:36;;;;;;;43.67;24.38;;;;;;;;;;4953655;28;25071;-77
2024/01/20 10:11:06;;;;;;;52.80;28.15;;;;;;;;;;4958388;28;25101;-78
2024/01/20 10:13:32;;;;;;;53.95;27.75;;;;;;;;;;4946061;28;25062;-76
2024/01/20 10:15:58;;;;;;;53.10;26.90;;;;;;;;;;4933459;29;25047;-75
2024/01/20 10:18:24;;;;;;;52.38;27.80;;;;;;;;;;4948851;28;25050;-78
2024/01/20 10:21:00;;;;;;;54.15;27.60;;;;;;;;;;4943823;28;25154;-78
2024/01/20 10:23:26;;;;;;;53.42;27.95;;;;;;;;;;4943942;28;25075;-78
2024/01/20 10:26:05;;;;;;;50.88;27.67;;;;;;;;;;4949821;28;25068;-81
2024/01/20 10:28:32;;;;;;;51.88;27.75;;;;;;;;;;4927250;28;25063;-77
2024/01/20 10:30:58;;;;;;;54.40;27.70;;;;;;;;;;4954148;28;25105;-78
2024/01/20 10:33:25;;;;;;;56.60;30.00;;;;;;;;;;4945388;28;25071;-78
2024/01/20 10:35:54;;;;;;;49.95;27.70;;;;;;;;;;4942585;28;25171;-79
2024/01/20 10:38:23;;;;;;;51.95;29.58;;;;;;;;;;4954459;28;25086;-78
2024/01/20 10:40:57;;;;;;;53.58;28.70;;;;;;;;;;4930747;28;25057;-78
2024/01/20 10:43:25;;;;;;;53.78;28.70;;;;;;;;;;4964210;28;25066;-80
2024/01/20 10:45:51;;;;;;;52.92;30.33;;;;;;;;;;4959575;28;25110;-78
2024/01/20 10:48:25;;;;;;;52.60;28.52;;;;;;;;;;4940516;28;25071;-77
2024/01/20 10:50:53;;;;;;;48.60;27.67;;;;;;;;;;4944743;28;25055;-76
2024/01/20 10:53:20;;;;;;;50.85;28.15;;;;;;;;;;4937818;28;25137;-77
2024/01/20 10:55:47;;;;;;;50.15;28.55;;;;;;;;;;4939896;28;25072;-78
2024/01/20 10:58:15;;;;;;;47.78;28.50;;;;;;;;;;4956360;28;25055;-76
2024/01/20 11:00:41;;;;;;;49.05;26.92;;;;;;;;;;4961181;28;25055;-79
2024/01/20 11:03:08;;;;;;;42.58;24.95;;;;;;;;;;4942164;28;25076;-78
2024/01/20 11:05:34;;;;;;;42.90;24.75;;;;;;;;;;4950982;28;25077;-77
2024/01/20 11:08:07;;;;;;;41.05;25.10;;;;;;;;;;4958851;28;25061;-78
2024/01/20 11:10:40;;;;;;;42.22;24.70;;;;;;;;;;4957049;28;25053;-80
2024/01/20 11:13:06;;;;;;;44.70;26.08;;;;;;;;;;4966827;28;25062;-78
2024/01/20 11:15:33;;;;;;;44.70;25.67;;;;;;;;;;4971307;28;25053;-81
2024/01/20 11:17:59;;;;;;;41.13;24.48;;;;;;;;;;4979291;28;25075;-80
2024/01/20 11:20:26;;;;;;;38.50;23.63;;;;;;;;;;4968132;28;25070;-81
2024/01/20 11:22:53;;;;;;;45.20;25.70;;;;;;;;;;4954137;28;25054;-81
2024/01/20 11:25:22;;;;;;;39.40;23.52;;;;;;;;;;4976790;28;25054;-76
2024/01/20 11:27:49;;;;;;;41.83;23.73;;;;;;;;;;4977599;28;25045;-78
2024/01/20 11:30:26;;;;;;;36.88;23.27;;;;;;;;;;4954321;28;25091;-79
2024/01/20 11:32:52;;;;;;;36.92;21.45;;;;;;;;;;4962678;28;25063;-81
2024/01/20 11:35:18;;;;;;;40.17;22.73;;;;;;;;;;4968510;28;25081;-76
2024/01/20 11:37:45;;;;;;;41.47;25.95;;;;;;;;;;4952257;28;25067;-75
2024/01/20 11:40:11;;;;;;;47.25;26.23;;;;;;;;;;4959342;28;25053;-76
2024/01/20 11:42:38;;;;;;;48.58;27.35;;;;;;;;;;4930409;28;25054;-78
2024/01/20 11:45:04;;;;;;;54.00;27.90;;;;;;;;;;4944985;28;25150;-76
2024/01/20 11:47:31;;;;;;;45.78;25.40;;;;;;;;;;4940808;28;25066;-76
2024/01/20 11:49:57;;;;;;;44.63;25.80;;;;;;;;;;4932363;28;25172;-81
2024/01/20 11:52:24;;;;;;;44.70;27.08;;;;;;;;;;4951583;28;25072;-77
2024/01/20 11:54:50;;;;;;;41.63;25.75;;;;;;;;;;4928682;29;25099;-77
2024/01/20 11:57:23;;;;;;;42.83;26.17;;;;;;;;;;4946533;28;25061;-78
2024/01/20 11:59:49;;;;;;;49.42;28.75;;;;;;;;;;4951846;28;25058;-79
2024/01/20 12:02:16;;;;;;;47.92;28.77;;;;;;;;;;4955312;28;25074;-78
2024/01/20 12:04:42;;;;;;;45.47;29.27;;;;;;;;;;4950976;28;25132;-77
2024/01/20 12:07:08;;;;;;;53.63;31.92;;;;;;;;;;4935424;28;25058;-78
2024/01/20 12:09:34;;;;;;;46.97;29.67;;;;;;;;;;4945994;28;25046;-77
2024/01/20 12:12:01;;;;;;;48.85;30.15;;;;;;;;;;4952260;28;25072;-79
2024/01/20 12:14:27;;;;;;;46.13;28.23;;;;;;;;;;4940276;28;25080;-79
2024/01/20 12:16:53;;;;;;;48.70;29.23;;;;;;;;;;4934822;28;25072;-76
2024/01/20 12:19:20;;;;;;;46.50;29.70;;;;;;;;;;4950361;28;25055;-77
2024/01/20 12:21:46;;;;;;;46.45;29.15;;;;;;;;;;4957489;28;25094;-79
2024/01/20 12:24:13;;;;;;;44.45;27.70;;;;;;;;;;4928917;28;25059;-77
2024/01/20 12:26:41;;;;;;;41.40;26.33;;;;;;;;;;4941886;28;25100;-77
2024/01/20 12:29:07;;;;;;;40.92;26.38;;;;;;;;;;4957001;28;25060;-77
2024/01/20 12:31:33;;;;;;;38.35;24.35;;;;;;;;;;4956051;28;25071;-77
2024/01/20 12:33:59;;;;;;;34.80;23.00;;;;;;;;;;4930300;29;25082;-77
2024/01/20 12:36:26;;;;;;;38.15;23.65;;;;;;;;;;4948770;28;25105;-78
2024/01/20 12:38:52;;;;;;;33.80;22.38;;;;;;;;;;4942870;28;25053;-78
2024/01/20 12:41:18;;;;;;;38.30;25.63;;;;;;;;;;4939893;28;25145;-78
2024/01/20 12:43:48;;;;;;;35.22;23.33;;;;;;;;;;4955095;28;25068;-78
2024/01/20 12:46:14;;;;;;;48.85;24.55;;;;;;;;;;4933918;29;25075;-76
2024/01/20 12:48:40;;;;;;;37.25;23.65;;;;;;;;;;4953589;28;25057;-80
2024/01/20 12:51:06;;;;;;;36.28;23.48;;;;;;;;;;4942636;28;25070;-78
2024/01/20 12:53:33;;;;;;;37.17;22.77;;;;;;;;;;4947431;28;25053;-77
2024/01/20 12:55:59;;;;;;;35.47;22.52;;;;;;;;;;4970898;28;25165;-78
2024/01/20 12:58:25;;;;;;;37.50;23.70;;;;;;;;;;4966884;28;25072;-78
2024/01/20 13:00:51;;;;;;;33.40;22.55;;;;;;;;;;4972474;28;25147;-76
2024/01/20 13:03:17;;;;;;;37.53;23.33;;;;;;;;;;4946000;28;25155;-78
2024/01/20 13:05:44;;;;;;;34.70;24.02;;;;;;;;;;4944377;28;25058;-77
2024/01/20 13:08:11;;;;;;;36.28;23.92;;;;;;;;;;4952664;28;25074;-78
2024/01/20 13:10:37;;;;;;;38.55;24.08;;;;;;;;;;4937360;28;25067;-78
2024/01/20 13:13:03;;;;;;;32.97;22.85;;;;;;;;;;4953007;28;25086;-77
2024/01/20 13:15:29;;;;;;;34.00;22.80;;;;;;;;;;4935117;28;25059;-78
2024/01/20 13:17:55;;;;;;;34.88;22.98;;;;;;;;;;4946016;28;25082;-78
2024/01/20 13:20:22;;;;;;;41.78;25.73;;;;;;;;;;4958751;28;25064;-77
2024/01/20 13:22:48;;;;;;;52.22;31.00;;;;;;;;;;4948146;28;25062;-77
2024/01/20 13:25:14;;;;;;;73.07;39.47;;;;;;;;;;4933805;29;25099;-76
2024/01/20 13:27:40;;;;;;;68.72;41.35;;;;;;;;;;4952320;28;25079;-77
2024/01/20 13:30:06;;;;;;;73.97;41.67;;;;;;;;;;4944779;28;25068;-77
2024/01/20 13:32:32;;;;;;;72.50;41.70;;;;;;;;;;4945195;28;25136;-80
2024/01/20 13:34:58;;;;;;;61.35;35.63;;;;;;;;;;4963525;28;25150;-81
2024/01/20 13:37:24;;;;;;;50.22;30.58;;;;;;;;;;4963588;28;25065;-80
2024/01/20 13:39:50;;;;;;;48.70;28.05;;;;;;;;;;4963064;28;25063;-77
2024/01/20 13:42:16;;;;;;;46.05;27.40;;;;;;;;;;4939125;28;25067;-78
2024/01/20 13:44:43;;;;;;;34.40;22.60;;;;;;;;;;4941985;28;25062;-78
2024/01/20 13:47:09;;;;;;;37.22;23.67;;;;;;;;;;4956093;28;25072;-79
2024/01/20 13:49:35;;;;;;;35.90;21.75;;;;;;;;;;4951408;28;25076;-82
2024/01/20 13:52:01;;;;;;;32.65;20.88;;;;;;;;;;4969965;28;25073;-78
2024/01/20 13:54:27;;;;;;;37.20;20.70;;;;;;;;;;4939602;28;25074;-79
2024/01/20 13:56:53;;;;;;;33.35;21.58;;;;;;;;;;4952374;28;25081;-78
2024/01/20 13:59:19;;;;;;;38.63;23.10;;;;;;;;;;4947688;28;25101;-79
2024/01/20 14:01:45;;;;;;;43.38;23.80;;;;;;;;;;4939836;28;25071;-80
2024/01/20 14:04:13;;;;;;;47.88;29.08;;;;;;;;;;4962475;28;25058;-79
2024/01/20 14:06:38;;;;;;;66.18;34.90;;;;;;;;;;4937540;28;25148;-82
2024/01/20 14:09:09;;;;;;;75.25;35.70;;;;;;;;;;4948199;28;25053;-78
2024/01/20 14:11:35;;;;;;;62.25;32.55;;;;;;;;;;4962704;28;25097;-80